sensor_id;sensor_type;location;lat;lon;timestamp;pressure;altitude;pressure_sealevel;temperature;humidity
6565;BME280;3316;44.118;27.258;2023-01-26T00:00:51;102285.25;;;1.39;100.00
6565;BME280;3316;44.118;27.258;2023-01-26T00:03:17;102280.00;;;1.37;100.00
6565;BME280;3316;44.118;27.258;2023-01-26T00:05:44;102267.09;;;1.39;100.00
6565;BME280;3316;44.118;27.258;2023-01-26T00:08:10;102275.84;;;1.41;100.00
6565;BME280;3316;44.118;27.258;2023-01-26T00:10:39;102272.88;;;1.33;100.00
6565;BME280;3316;44.118;27.258;2023-01-26T00:13:06;102277.16;;;1.33;100.00
6565;BME280;3316;44.118;27.258;2023-01-26T00:15:32;102268.81;;;1.38;100.00
6565;BME280;3316;44.118;27.258;2023-01-26T00:17:59;102269.16;;;1.44;100.00
6565;BME280;3316;44.118;27.258;2023-01-26T00:20:25;102259.91;;;1.49;100.00
6565;BME280;3316;44.118;27.258;2023-01-26T00:22:50;102223.66;;;1.35;100.00
6565;BME280;3316;44.118;27.258;2023-01-26T00:25:16;102268.00;;;1.55;100.00
6565;BME280;3316;44.118;27.258;2023-01-26T00:27:41;102272.88;;;1.49;100.00
6565;BME280;3316;44.118;27.258;2023-01-26T00:30:07;102273.25;;;1.57;100.00
6565;BME280;3316;44.118;27.258;2023-01-26T00:32:36;102251.22;;;1.49;100.00
6565;BME280;3316;44.118;27.258;2023-01-26T00:35:02;102254.72;;;1.49;100.00
6565;BME280;3316;44.118;27.258;2023-01-26T00:37:28;102254.13;;;1.55;100.00
6565;BME280;3316;44.118;27.258;2023-01-26T00:39:54;102255.69;;;1.51;100.00
6565;BME280;3316;44.118;27.258;2023-01-26T00:42:19;102246.09;;;1.50;100.00
6565;BME280;3316;44.118;27.258;2023-01-26T00:44:46;102240.19;;;1.53;100.00
6565;BME280;3316;44.118;27.258;2023-01-26T00:47:12;102234.59;;;1.61;100.00
6565;BME280;3316;44.118;27.258;2023-01-26T00:49:38;102228.63;;;1.64;100.00
6565;BME280;3316;44.118;27.258;2023-01-26T00:52:04;102189.63;;;1.45;100.00
6565;BME280;3316;44.118;27.258;2023-01-26T00:54:30;102226.28;;;1.68;100.00
6565;BME280;3316;44.118;27.258;2023-01-26T00:56:55;102222.66;;;1.65;100.00
6565;BME280;3316;44.118;27.258;2023-01-26T00:59:21;102197.88;;;1.54;100.00
6565;BME280;3316;44.118;27.258;2023-01-26T01:01:47;102198.91;;;1.57;100.00
6565;BME280;3316;44.118;27.258;2023-01-26T01:04:13;102208.97;;;1.67;100.00
6565;BME280;3316;44.118;27.258;2023-01-26T01:06:39;102220.78;;;1.62;100.00
6565;BME280;3316;44.118;27.258;2023-01-26T01:09:05;102215.06;;;1.52;100.00
6565;BME280;3316;44.118;27.258;2023-01-26T01:11:31;102165.44;;;1.28;100.00
6565;BME280;3316;44.118;27.258;2023-01-26T01:13:57;102198.69;;;1.53;100.00
6565;BME280;3316;44.118;27.258;2023-01-26T01:16:23;102206.19;;;1.64;100.00
6565;BME280;3316;44.118;27.258;2023-01-26T01:18:52;102199.59;;;1.53;100.00
6565;BME280;3316;44.118;27.258;2023-01-26T01:21:18;102196.91;;;1.52;100.00
6565;BME280;3316;44.118;27.258;2023-01-26T01:23:44;102173.91;;;1.42;100.00
6565;BME280;3316;44.118;27.258;2023-01-26T01:26:10;102189.94;;;1.51;100.00
6565;BME280;3316;44.118;27.258;2023-01-26T01:28:36;102197.69;;;1.67;100.00
6565;BME280;3316;44.118;27.258;2023-01-26T01:31:06;102182.38;;;1.55;100.00
6565;BME280;3316;44.118;27.258;2023-01-26T01:33:32;102180.19;;;1.63;100.00
6565;BME280;3316;44.118;27.258;2023-01-26T01:36:00;102180.47;;;1.69;100.00
6565;BME280;3316;44.118;27.258;2023-01-26T01:38:26;102179.50;;;1.67;100.00
6565;BME280;3316;44.118;27.258;2023-01-26T01:40:52;102173.44;;;1.66;100.00
6565;BME280;3316;44.118;27.258;2023-01-26T01:43:18;102168.31;;;1.68;100.00
6565;BME280;3316;44.118;27.258;2023-01-26T01:45:45;102157.88;;;1.66;100.00
6565;BME280;3316;44.118;27.258;2023-01-26T01:49:02;102157.63;;;1.79;100.00
6565;BME280;3316;44.118;27.258;2023-01-26T01:51:41;102150.44;;;1.74;100.00
6565;BME280;3316;44.118;27.258;2023-01-26T01:54:11;102148.69;;;1.73;100.00
6565;BME280;3316;44.118;27.258;2023-01-26T01:56:40;102150.91;;;1.83;100.00
6565;BME280;3316;44.118;27.258;2023-01-26T01:59:08;102152.06;;;1.72;100.00
6565;BME280;3316;44.118;27.258;2023-01-26T02:01:35;102108.72;;;1.52;100.00
6565;BME280;3316;44.118;27.258;2023-01-26T02:04:04;102143.50;;;1.73;100.00
6565;BME280;3316;44.118;27.258;2023-01-26T02:06:34;102145.25;;;1.74;100.00
6565;BME280;3316;44.118;27.258;2023-01-26T02:09:01;102140.91;;;1.73;100.00
6565;BME280;3316;44.118;27.258;2023-01-26T02:11:33;102137.94;;;1.65;100.00
6565;BME280;3316;44.118;27.258;2023-01-26T02:14:03;102130.22;;;1.67;100.00
6565;BME280;3316;44.118;27.258;2023-01-26T02:16:29;102136.22;;;1.66;100.00
6565;BME280;3316;44.118;27.258;2023-01-26T02:18:55;102118.44;;;1.73;100.00
6565;BME280;3316;44.118;27.258;2023-01-26T02:21:21;102124.75;;;1.78;100.00
6565;BME280;3316;44.118;27.258;2023-01-26T02:26:34;102118.59;;;1.76;100.00
6565;BME280;3316;44.118;27.258;2023-01-26T02:29:01;102112.97;;;1.67;100.00
6565;BME280;3316;44.118;27.258;2023-01-26T02:31:27;102112.06;;;1.67;100.00
6565;BME280;3316;44.118;27.258;2023-01-26T02:33:53;102067.97;;;1.49;100.00
6565;BME280;3316;44.118;27.258;2023-01-26T02:36:28;102112.84;;;1.66;100.00
6565;BME280;3316;44.118;27.258;2023-01-26T02:39:18;102112.06;;;1.67;100.00
6565;BME280;3316;44.118;27.258;2023-01-26T02:41:47;102101.44;;;1.62;100.00
6565;BME280;3316;44.118;27.258;2023-01-26T02:44:32;102096.31;;;1.64;100.00
6565;BME280;3316;44.118;27.258;2023-01-26T02:46:57;102091.38;;;1.68;100.00
6565;BME280;3316;44.118;27.258;2023-01-26T02:49:23;102084.31;;;1.66;100.00
6565;BME280;3316;44.118;27.258;2023-01-26T02:52:07;102087.09;;;1.69;100.00
6565;BME280;3316;44.118;27.258;2023-01-26T02:54:33;102081.16;;;1.54;100.00
6565;BME280;3316;44.118;27.258;2023-01-26T02:57:17;102085.50;;;1.55;100.00
6565;BME280;3316;44.118;27.258;2023-01-26T02:59:42;102061.06;;;1.50;100.00
6565;BME280;3316;44.118;27.258;2023-01-26T03:02:08;102072.41;;;1.52;100.00
6565;BME280;3316;44.118;27.258;2023-01-26T03:04:34;102080.56;;;1.59;100.00
6565;BME280;3316;44.118;27.258;2023-01-26T03:06:59;102068.50;;;1.60;100.00
6565;BME280;3316;44.118;27.258;2023-01-26T03:09:24;102061.50;;;1.59;100.00
6565;BME280;3316;44.118;27.258;2023-01-26T03:11:50;102049.94;;;1.52;100.00
6565;BME280;3316;44.118;27.258;2023-01-26T03:14:16;102060.09;;;1.48;100.00
6565;BME280;3316;44.118;27.258;2023-01-26T03:16:41;102057.66;;;1.51;100.00
6565;BME280;3316;44.118;27.258;2023-01-26T03:19:10;102048.41;;;1.56;100.00
6565;BME280;3316;44.118;27.258;2023-01-26T03:21:54;102036.91;;;1.51;100.00
6565;BME280;3316;44.118;27.258;2023-01-26T03:24:49;102037.38;;;1.42;100.00
6565;BME280;3316;44.118;27.258;2023-01-26T03:27:39;102033.34;;;1.49;100.00
6565;BME280;3316;44.118;27.258;2023-01-26T03:30:05;102043.34;;;1.59;100.00
6565;BME280;3316;44.118;27.258;2023-01-26T03:32:30;102023.63;;;1.45;100.00
6565;BME280;3316;44.118;27.258;2023-01-26T03:34:56;102034.06;;;1.64;100.00
6565;BME280;3316;44.118;27.258;2023-01-26T03:37:21;102020.97;;;1.61;100.00
6565;BME280;3316;44.118;27.258;2023-01-26T03:39:50;102037.19;;;1.74;100.00
6565;BME280;3316;44.118;27.258;2023-01-26T03:42:35;102038.59;;;1.68;100.00
6565;BME280;3316;44.118;27.258;2023-01-26T03:45:20;102044.84;;;1.71;100.00
6565;BME280;3316;44.118;27.258;2023-01-26T03:48:06;102043.03;;;1.70;100.00
6565;BME280;3316;44.118;27.258;2023-01-26T03:50:50;102047.44;;;1.71;100.00
6565;BME280;3316;44.118;27.258;2023-01-26T03:53:34;102040.09;;;1.63;100.00
6565;BME280;3316;44.118;27.258;2023-01-26T03:56:18;102030.00;;;1.69;100.00
6565;BME280;3316;44.118;27.258;2023-01-26T03:58:53;102027.78;;;1.59;100.00
6565;BME280;3316;44.118;27.258;2023-01-26T04:01:21;102031.66;;;1.49;100.00
6565;BME280;3316;44.118;27.258;2023-01-26T04:03:53;102023.78;;;1.48;100.00
6565;BME280;3316;44.118;27.258;2023-01-26T04:06:39;102023.78;;;1.48;100.00
6565;BME280;3316;44.118;27.258;2023-01-26T04:09:24;102013.72;;;1.36;100.00
6565;BME280;3316;44.118;27.258;2023-01-26T04:11:49;102016.38;;;1.38;100.00
6565;BME280;3316;44.118;27.258;2023-01-26T04:14:15;102012.81;;;1.36;100.00
6565;BME280;3316;44.118;27.258;2023-01-26T04:17:00;102006.31;;;1.44;100.00
6565;BME280;3316;44.118;27.258;2023-01-26T04:19:45;102002.81;;;1.43;100.00
6565;BME280;3316;44.118;27.258;2023-01-26T04:22:29;102011.91;;;1.53;100.00
6565;BME280;3316;44.118;27.258;2023-01-26T04:24:55;102003.34;;;1.54;100.00
6565;BME280;3316;44.118;27.258;2023-01-26T04:27:23;102008.66;;;1.57;100.00
6565;BME280;3316;44.118;27.258;2023-01-26T04:29:49;102001.47;;;1.51;100.00
6565;BME280;3316;44.118;27.258;2023-01-26T04:32:14;102002.38;;;1.52;100.00
6565;BME280;3316;44.118;27.258;2023-01-26T04:34:40;101982.13;;;1.45;100.00
6565;BME280;3316;44.118;27.258;2023-01-26T04:37:05;102012.34;;;1.62;100.00
6565;BME280;3316;44.118;27.258;2023-01-26T04:39:30;101993.75;;;1.53;100.00
6565;BME280;3316;44.118;27.258;2023-01-26T04:41:56;102007.44;;;1.68;100.00
6565;BME280;3316;44.118;27.258;2023-01-26T04:44:21;101989.09;;;1.63;100.00
6565;BME280;3316;44.118;27.258;2023-01-26T04:46:47;102005.44;;;1.80;100.00
6565;BME280;3316;44.118;27.258;2023-01-26T04:49:13;102007.41;;;1.86;100.00
6565;BME280;3316;44.118;27.258;2023-01-26T04:51:39;101992.13;;;1.92;100.00
6565;BME280;3316;44.118;27.258;2023-01-26T04:54:04;101984.63;;;1.98;100.00
6565;BME280;3316;44.118;27.258;2023-01-26T04:56:32;101983.94;;;2.02;100.00
6565;BME280;3316;44.118;27.258;2023-01-26T04:59:00;101979.78;;;2.05;100.00
6565;BME280;3316;44.118;27.258;2023-01-26T05:01:26;101973.78;;;2.06;100.00
6565;BME280;3316;44.118;27.258;2023-01-26T05:03:52;101967.75;;;2.07;100.00
6565;BME280;3316;44.118;27.258;2023-01-26T05:06:17;101980.22;;;2.14;100.00
6565;BME280;3316;44.118;27.258;2023-01-26T05:08:43;101974.94;;;2.13;100.00
6565;BME280;3316;44.118;27.258;2023-01-26T05:11:08;101966.97;;;2.08;100.00
6565;BME280;3316;44.118;27.258;2023-01-26T05:13:34;101955.19;;;1.97;100.00
6565;BME280;3316;44.118;27.258;2023-01-26T05:16:01;101955.47;;;2.03;100.00
6565;BME280;3316;44.118;27.258;2023-01-26T05:18:27;101969.84;;;2.14;100.00
6565;BME280;3316;44.118;27.258;2023-01-26T05:20:53;101954.78;;;2.07;100.00
6565;BME280;3316;44.118;27.258;2023-01-26T05:23:18;101964.75;;;2.17;100.00
6565;BME280;3316;44.118;27.258;2023-01-26T05:25:43;101933.69;;;2.00;100.00
6565;BME280;3316;44.118;27.258;2023-01-26T05:28:09;101970.22;;;2.23;100.00
6565;BME280;3316;44.118;27.258;2023-01-26T05:30:34;101962.91;;;2.15;100.00
6565;BME280;3316;44.118;27.258;2023-01-26T05:33:01;101935.53;;;2.02;100.00
6565;BME280;3316;44.118;27.258;2023-01-26T05:35:26;101895.47;;;1.97;100.00
6565;BME280;3316;44.118;27.258;2023-01-26T05:37:52;101956.91;;;2.16;100.00
6565;BME280;3316;44.118;27.258;2023-01-26T05:40:17;101968.94;;;2.14;100.00
6565;BME280;3316;44.118;27.258;2023-01-26T05:42:43;101965.59;;;2.16;100.00
6565;BME280;3316;44.118;27.258;2023-01-26T05:45:08;101980.22;;;2.14;100.00
6565;BME280;3316;44.118;27.258;2023-01-26T05:47:34;101960.66;;;2.03;100.00
6565;BME280;3316;44.118;27.258;2023-01-26T05:49:59;101954.88;;;2.09;100.00
6565;BME280;3316;44.118;27.258;2023-01-26T05:52:25;101962.31;;;2.20;100.00
6565;BME280;3316;44.118;27.258;2023-01-26T05:54:51;101954.66;;;2.23;100.00
6565;BME280;3316;44.118;27.258;2023-01-26T05:57:16;101961.69;;;2.26;100.00
6565;BME280;3316;44.118;27.258;2023-01-26T05:59:42;101975.81;;;2.32;100.00
6565;BME280;3316;44.118;27.258;2023-01-26T06:02:10;101968.84;;;2.31;100.00
6565;BME280;3316;44.118;27.258;2023-01-26T06:04:36;101969.88;;;2.35;100.00
6565;BME280;3316;44.118;27.258;2023-01-26T06:07:02;101970.44;;;2.28;100.00
6565;BME280;3316;44.118;27.258;2023-01-26T06:09:27;101943.38;;;2.23;100.00
6565;BME280;3316;44.118;27.258;2023-01-26T06:11:53;101967.44;;;2.38;100.00
6565;BME280;3316;44.118;27.258;2023-01-26T06:14:18;101960.38;;;2.35;100.00
6565;BME280;3316;44.118;27.258;2023-01-26T06:16:44;101951.91;;;2.39;100.00
6565;BME280;3316;44.118;27.258;2023-01-26T06:19:10;101959.75;;;2.41;100.00
6565;BME280;3316;44.118;27.258;2023-01-26T06:21:36;101924.16;;;2.19;100.00
6565;BME280;3316;44.118;27.258;2023-01-26T06:24:02;101973.19;;;2.70;100.00
6565;BME280;3316;44.118;27.258;2023-01-26T06:26:27;101968.03;;;2.51;100.00
6565;BME280;3316;44.118;27.258;2023-01-26T06:28:53;101950.00;;;2.35;100.00
6565;BME280;3316;44.118;27.258;2023-01-26T06:31:19;101956.88;;;2.35;100.00
6565;BME280;3316;44.118;27.258;2023-01-26T06:33:45;101961.69;;;2.26;100.00
6565;BME280;3316;44.118;27.258;2023-01-26T06:36:14;101965.03;;;2.23;100.00
6565;BME280;3316;44.118;27.258;2023-01-26T06:38:47;101965.38;;;2.31;100.00
6565;BME280;3316;44.118;27.258;2023-01-26T06:41:13;101965.56;;;2.35;100.00
6565;BME280;3316;44.118;27.258;2023-01-26T06:43:38;101969.53;;;2.46;100.00
6565;BME280;3316;44.118;27.258;2023-01-26T06:46:04;101959.41;;;2.52;100.00
6565;BME280;3316;44.118;27.258;2023-01-26T06:48:33;101962.28;;;2.39;100.00
6565;BME280;3316;44.118;27.258;2023-01-26T06:53:55;101958.81;;;2.39;100.00
6565;BME280;3316;44.118;27.258;2023-01-26T06:56:22;101959.69;;;2.39;100.00
6565;BME280;3316;44.118;27.258;2023-01-26T06:58:48;101962.81;;;2.32;100.00
6565;BME280;3316;44.118;27.258;2023-01-26T07:01:21;101962.91;;;2.34;100.00
6565;BME280;3316;44.118;27.258;2023-01-26T07:03:48;101955.31;;;2.38;100.00
6565;BME280;3316;44.118;27.258;2023-01-26T07:06:14;101966.66;;;2.40;100.00
6565;BME280;3316;44.118;27.258;2023-01-26T07:08:39;101967.75;;;2.45;100.00
6565;BME280;3316;44.118;27.258;2023-01-26T07:11:06;101973.41;;;2.56;100.00
6565;BME280;3316;44.118;27.258;2023-01-26T07:13:32;101960.50;;;2.57;100.00
6565;BME280;3316;44.118;27.258;2023-01-26T07:16:01;101950.28;;;2.41;100.00
6565;BME280;3316;44.118;27.258;2023-01-26T07:18:27;101956.69;;;2.49;100.00
6565;BME280;3316;44.118;27.258;2023-01-26T07:20:52;101958.81;;;2.59;100.00
6565;BME280;3316;44.118;27.258;2023-01-26T07:23:18;101941.38;;;2.55;100.00
6565;BME280;3316;44.118;27.258;2023-01-26T07:25:43;101944.59;;;2.70;100.00
6565;BME280;3316;44.118;27.258;2023-01-26T07:28:09;101947.25;;;2.93;100.00
6565;BME280;3316;44.118;27.258;2023-01-26T07:30:35;101955.00;;;3.12;100.00
6565;BME280;3316;44.118;27.258;2023-01-26T07:33:01;101945.16;;;3.25;100.00
6565;BME280;3316;44.118;27.258;2023-01-26T07:35:26;101936.59;;;3.07;100.00
6565;BME280;3316;44.118;27.258;2023-01-26T07:37:54;101955.94;;;2.93;100.00
6565;BME280;3316;44.118;27.258;2023-01-26T07:40:19;101904.66;;;2.68;100.00
6565;BME280;3316;44.118;27.258;2023-01-26T07:42:45;101810.38;;;2.09;100.00
6565;BME280;3316;44.118;27.258;2023-01-26T07:45:11;101933.81;;;2.82;100.00
6565;BME280;3316;44.118;27.258;2023-01-26T07:47:36;101941.28;;;2.95;100.00
6565;BME280;3316;44.118;27.258;2023-01-26T07:50:02;101936.47;;;3.04;100.00
6565;BME280;3316;44.118;27.258;2023-01-26T07:52:28;101945.25;;;3.28;100.00
6565;BME280;3316;44.118;27.258;2023-01-26T07:54:53;101944.06;;;3.20;100.00
6565;BME280;3316;44.118;27.258;2023-01-26T07:57:19;101929.78;;;3.11;100.00
6565;BME280;3316;44.118;27.258;2023-01-26T07:59:44;101923.59;;;3.07;100.00
6565;BME280;3316;44.118;27.258;2023-01-26T08:02:10;101929.53;;;3.05;100.00
6565;BME280;3316;44.118;27.258;2023-01-26T08:04:35;101905.19;;;3.03;100.00
6565;BME280;3316;44.118;27.258;2023-01-26T08:07:00;101868.53;;;2.75;100.00
6565;BME280;3316;44.118;27.258;2023-01-26T08:09:26;101916.25;;;2.97;100.00
6565;BME280;3316;44.118;27.258;2023-01-26T08:11:51;101918.69;;;3.15;100.00
6565;BME280;3316;44.118;27.258;2023-01-26T08:14:17;101913.22;;;3.29;100.00
6565;BME280;3316;44.118;27.258;2023-01-26T08:16:42;101910.25;;;3.42;100.00
6565;BME280;3316;44.118;27.258;2023-01-26T08:19:09;101909.84;;;3.32;100.00
6565;BME280;3316;44.118;27.258;2023-01-26T08:21:34;101908.38;;;3.38;100.00
6565;BME280;3316;44.118;27.258;2023-01-26T08:24:00;101902.09;;;3.55;100.00
6565;BME280;3316;44.118;27.258;2023-01-26T08:26:27;101900.03;;;3.47;100.00
6565;BME280;3316;44.118;27.258;2023-01-26T08:28:53;101898.44;;;3.50;100.00
6565;BME280;3316;44.118;27.258;2023-01-26T08:31:20;101897.63;;;3.75;100.00
6565;BME280;3316;44.118;27.258;2023-01-26T08:33:47;101896.38;;;3.88;100.00
6565;BME280;3316;44.118;27.258;2023-01-26T08:36:15;101900.19;;;3.97;100.00
6565;BME280;3316;44.118;27.258;2023-01-26T08:38:41;101893.47;;;4.04;100.00
6565;BME280;3316;44.118;27.258;2023-01-26T08:41:07;101885.03;;;4.09;100.00
6565;BME280;3316;44.118;27.258;2023-01-26T08:43:33;101888.72;;;4.16;100.00
6565;BME280;3316;44.118;27.258;2023-01-26T08:45:59;101881.25;;;4.01;100.00
6565;BME280;3316;44.118;27.258;2023-01-26T08:48:25;101886.56;;;4.04;100.00
6565;BME280;3316;44.118;27.258;2023-01-26T08:50:55;101862.22;;;4.04;100.00
6565;BME280;3316;44.118;27.258;2023-01-26T08:53:21;101863.34;;;4.10;100.00
6565;BME280;3316;44.118;27.258;2023-01-26T08:55:46;101870.47;;;4.16;100.00
6565;BME280;3316;44.118;27.258;2023-01-26T08:58:12;101821.16;;;3.95;100.00
6565;BME280;3316;44.118;27.258;2023-01-26T09:00:37;101863.66;;;4.19;100.00
6565;BME280;3316;44.118;27.258;2023-01-26T09:03:04;101848.91;;;4.20;100.00
6565;BME280;3316;44.118;27.258;2023-01-26T09:05:31;101839.78;;;4.31;100.00
6565;BME280;3316;44.118;27.258;2023-01-26T09:07:57;101839.81;;;4.32;100.00
6565;BME280;3316;44.118;27.258;2023-01-26T09:10:22;101836.91;;;4.48;100.00
6565;BME280;3316;44.118;27.258;2023-01-26T09:12:48;101830.00;;;4.50;100.00
6565;BME280;3316;44.118;27.258;2023-01-26T09:15:13;101828.59;;;4.60;100.00
6565;BME280;3316;44.118;27.258;2023-01-26T09:17:39;101828.72;;;4.65;100.00
6565;BME280;3316;44.118;27.258;2023-01-26T09:20:07;101822.88;;;4.72;100.00
6565;BME280;3316;44.118;27.258;2023-01-26T09:22:34;101826.13;;;4.91;100.00
6565;BME280;3316;44.118;27.258;2023-01-26T09:24:59;101808.13;;;5.00;100.00
6565;BME280;3316;44.118;27.258;2023-01-26T09:27:25;101811.66;;;5.01;100.00
6565;BME280;3316;44.118;27.258;2023-01-26T09:29:51;101818.50;;;4.97;100.00
6565;BME280;3316;44.118;27.258;2023-01-26T09:32:18;101813.44;;;5.03;100.00
6565;BME280;3316;44.118;27.258;2023-01-26T09:34:43;101808.19;;;5.02;100.00
6565;BME280;3316;44.118;27.258;2023-01-26T09:37:09;101767.44;;;4.77;100.00
6565;BME280;3316;44.118;27.258;2023-01-26T09:39:34;101793.97;;;4.92;100.00
6565;BME280;3316;44.118;27.258;2023-01-26T09:42:15;101804.09;;;5.10;100.00
6565;BME280;3316;44.118;27.258;2023-01-26T09:45:13;101797.16;;;5.10;100.00
6565;BME280;3316;44.118;27.258;2023-01-26T09:50:35;101756.97;;;5.05;100.00
6565;BME280;3316;44.118;27.258;2023-01-26T09:53:06;101752.03;;;5.13;100.00
6565;BME280;3316;44.118;27.258;2023-01-26T09:55:39;101686.88;;;4.86;100.00
6565;BME280;3316;44.118;27.258;2023-01-26T09:58:11;101769.09;;;5.31;100.00
6565;BME280;3316;44.118;27.258;2023-01-26T10:00:49;101769.78;;;5.26;100.00
6565;BME280;3316;44.118;27.258;2023-01-26T10:06:04;101769.47;;;5.45;100.00
6565;BME280;3316;44.118;27.258;2023-01-26T10:08:38;101764.22;;;5.43;100.00
6565;BME280;3316;44.118;27.258;2023-01-26T10:11:10;101746.69;;;5.39;100.00
6565;BME280;3316;44.118;27.258;2023-01-26T10:13:37;101733.69;;;5.41;100.00
6565;BME280;3316;44.118;27.258;2023-01-26T10:16:05;101733.09;;;5.51;100.00
6565;BME280;3316;44.118;27.258;2023-01-26T10:18:58;101739.22;;;5.52;100.00
6565;BME280;3316;44.118;27.258;2023-01-26T10:21:34;101725.03;;;5.42;100.00
6565;BME280;3316;44.118;27.258;2023-01-26T10:24:01;101722.09;;;5.31;100.00
6565;BME280;3316;44.118;27.258;2023-01-26T10:26:30;101706.78;;;5.12;100.00
6565;BME280;3316;44.118;27.258;2023-01-26T10:28:56;101709.78;;;4.96;100.00
6565;BME280;3316;44.118;27.258;2023-01-26T10:31:25;101708.88;;;4.96;100.00
6565;BME280;3316;44.118;27.258;2023-01-26T10:34:08;101705.31;;;4.92;100.00
6565;BME280;3316;44.118;27.258;2023-01-26T10:36:34;101696.38;;;4.84;100.00
6565;BME280;3316;44.118;27.258;2023-01-26T10:39:07;101702.91;;;5.00;100.00
6565;BME280;3316;44.118;27.258;2023-01-26T10:41:34;101691.56;;;4.98;100.00
6565;BME280;3316;44.118;27.258;2023-01-26T10:44:22;101684.78;;;5.03;100.00
6565;BME280;3316;44.118;27.258;2023-01-26T10:47:03;101686.91;;;5.17;100.00
6565;BME280;3316;44.118;27.258;2023-01-26T10:49:28;101677.13;;;5.09;100.00
6565;BME280;3316;44.118;27.258;2023-01-26T10:52:10;101666.91;;;5.16;100.00
6565;BME280;3316;44.118;27.258;2023-01-26T10:54:38;101668.06;;;5.27;100.00
6565;BME280;3316;44.118;27.258;2023-01-26T10:57:27;101657.78;;;5.33;100.00
6565;BME280;3316;44.118;27.258;2023-01-26T11:07:46;101637.25;;;5.46;100.00
6565;BME280;3316;44.118;27.258;2023-01-26T11:10:33;101610.84;;;5.35;100.00
6565;BME280;3316;44.118;27.258;2023-01-26T11:13:14;101630.25;;;5.44;100.00
6565;BME280;3316;44.118;27.258;2023-01-26T11:15:47;101638.34;;;5.54;100.00
6565;BME280;3316;44.118;27.258;2023-01-26T11:20:52;101637.56;;;5.58;100.00
6565;BME280;3316;44.118;27.258;2023-01-26T11:26:19;101610.19;;;5.42;100.00
6565;BME280;3316;44.118;27.258;2023-01-26T11:37:46;101582.69;;;5.56;100.00
6565;BME280;3316;44.118;27.258;2023-01-26T11:40:33;101604.28;;;5.83;100.00
6565;BME280;3316;44.118;27.258;2023-01-26T11:59:40;101569.50;;;5.84;100.00
6565;BME280;3316;44.118;27.258;2023-01-26T12:04:53;101567.19;;;5.96;100.00
6565;BME280;3316;44.118;27.258;2023-01-26T12:07:29;101550.63;;;5.96;100.00
6565;BME280;3316;44.118;27.258;2023-01-26T12:09:57;101557.88;;;6.09;100.00
6565;BME280;3316;44.118;27.258;2023-01-26T12:12:48;101558.09;;;6.18;100.00
6565;BME280;3316;44.118;27.258;2023-01-26T12:15:24;101559.16;;;6.26;100.00
6565;BME280;3316;44.118;27.258;2023-01-26T12:18:15;101545.22;;;6.27;100.00
6565;BME280;3316;44.118;27.258;2023-01-26T12:21:07;101551.53;;;6.38;100.00
6565;BME280;3316;44.118;27.258;2023-01-26T12:23:48;101525.91;;;6.20;100.00
6565;BME280;3316;44.118;27.258;2023-01-26T12:26:24;101541.97;;;6.39;100.00
6565;BME280;3316;44.118;27.258;2023-01-26T12:29:01;101532.31;;;6.35;100.00
6565;BME280;3316;44.118;27.258;2023-01-26T12:34:26;101533.41;;;6.46;100.00
6565;BME280;3316;44.118;27.258;2023-01-26T12:39:34;101526.66;;;6.55;100.00
6565;BME280;3316;44.118;27.258;2023-01-26T12:44:53;101521.50;;;6.60;100.00
6565;BME280;3316;44.118;27.258;2023-01-26T12:52:53;101515.88;;;6.83;100.00
6565;BME280;3316;44.118;27.258;2023-01-26T12:55:29;101527.88;;;6.72;100.00
6565;BME280;3316;44.118;27.258;2023-01-26T12:58:01;101518.56;;;6.86;100.00
6565;BME280;3316;44.118;27.258;2023-01-26T13:00:33;101465.53;;;6.50;100.00
6565;BME280;3316;44.118;27.258;2023-01-26T13:03:23;101515.94;;;6.86;100.00
6565;BME280;3316;44.118;27.258;2023-01-26T13:06:17;101517.78;;;6.92;100.00
6565;BME280;3316;44.118;27.258;2023-01-26T13:14:24;101510.06;;;6.99;100.00
6565;BME280;3316;44.118;27.258;2023-01-26T13:16:50;101509.25;;;7.02;100.00
6565;BME280;3316;44.118;27.258;2023-01-26T13:22:36;101512.78;;;7.05;100.00
6565;BME280;3316;44.118;27.258;2023-01-26T13:25:16;101507.59;;;7.07;100.00
6565;BME280;3316;44.118;27.258;2023-01-26T13:27:46;101488.22;;;6.96;100.00
6565;BME280;3316;44.118;27.258;2023-01-26T13:32:52;101497.44;;;7.25;100.00
6565;BME280;3316;44.118;27.258;2023-01-26T13:35:23;101480.72;;;7.17;100.00
6565;BME280;3316;44.118;27.258;2023-01-26T13:40:36;101486.78;;;7.16;100.00
6565;BME280;3316;44.118;27.258;2023-01-26T13:48:20;101493.56;;;7.03;100.00
6565;BME280;3316;44.118;27.258;2023-01-26T13:50:50;101498.16;;;7.16;100.00
6565;BME280;3316;44.118;27.258;2023-01-26T13:56:33;101501.59;;;7.14;100.00
6565;BME280;3316;44.118;27.258;2023-01-26T13:59:07;101494.53;;;7.10;100.00
6565;BME280;3316;44.118;27.258;2023-01-26T14:01:33;101489.34;;;7.11;100.00
6565;BME280;3316;44.118;27.258;2023-01-26T14:04:06;101484.00;;;7.05;100.00
6565;BME280;3316;44.118;27.258;2023-01-26T14:06:33;101483.09;;;7.02;100.00
6565;BME280;3316;44.118;27.258;2023-01-26T14:09:02;101436.38;;;6.77;100.00
6565;BME280;3316;44.118;27.258;2023-01-26T14:11:32;101484.84;;;7.04;100.00
6565;BME280;3316;44.118;27.258;2023-01-26T14:13:59;101471.53;;;6.91;100.00
6565;BME280;3316;44.118;27.258;2023-01-26T14:16:30;101449.66;;;6.86;100.00
6565;BME280;3316;44.118;27.258;2023-01-26T14:19:12;101471.53;;;6.92;100.00
6565;BME280;3316;44.118;27.258;2023-01-26T14:21:58;101448.75;;;6.85;100.00
6565;BME280;3316;44.118;27.258;2023-01-26T14:24:34;101452.28;;;6.87;100.00
6565;BME280;3316;44.118;27.258;2023-01-26T14:27:03;101453.22;;;6.91;100.00
6565;BME280;3316;44.118;27.258;2023-01-26T14:29:29;101451.44;;;6.88;100.00
6565;BME280;3316;44.118;27.258;2023-01-26T14:31:57;101444.56;;;6.93;100.00
6565;BME280;3316;44.118;27.258;2023-01-26T14:34:27;101423.41;;;6.83;100.00
6565;BME280;3316;44.118;27.258;2023-01-26T14:37:16;101446.13;;;6.84;100.00
6565;BME280;3316;44.118;27.258;2023-01-26T14:39:42;101432.19;;;6.85;100.00
6565;BME280;3316;44.118;27.258;2023-01-26T14:42:18;101435.56;;;6.78;100.00